Manchester, Kentucky
Current Conditions -  °F | °C
As of 9:53 AM on Friday 19 Dec 2014 (Local Time) from KLOZ Reporting Station
Overcast Overcast  
Wind Chill: 30°   Ceiling: 5500
Heat Index: 35°   Visibility: 9mi
Dew Point: 25°   Wind: 6mph
Humidity: 67%   Direction: 10°N
Pressure: 30.24"   Gusts: NA
Location:  37.15°N, 83.76°W
Report Text: KLOZ 191453Z AUTO 01005KT 9SM OVC055 02/M04 A3024 RMK AO2 SLP249 T00171039 53004
Loading
Personal Weather Stations






























Interactive Weather Map New forecast layout! Learn more

10-Day Weather Forecast

Advertisements
Track Severe Weather on mobile